Chicago, IL (60614)

8:30 AM CDT on August 29, 2014 (GMT -0500)
Lincoln Park | Change Station
CLOSE
Current Station
Personal Weather Station
Location: Chicago, IL
Elevation: 595 ft
Nearby Weather Stations

Elev 595 ft 41.92 °N, 87.66 °W | Updated 44 minutes ago

Overcast
Overcast
66.0 °F
Feels Like 66.0 °F
N
8.0
Wind Variable Wind from SW

Today
High -- | Low -- °F
--% Chance of Precip.
Yesterday
High -- | Low -- °F
Precip. -- in
6:13 AM 7:29 PM
Waxing Crescent, 14% visible
Pressure 29.97 in
Visibility 10.0 miles
Clouds Scattered Clouds 9500 ft
Mostly Cloudy 11000 ft
Overcast 15000 ft
Dew Point 37 °F
Humidity 19%
Rainfall -999.00 in
Snow Depth Not available.
UV 0 out of 12
Pollen 4.40 out of 12
Ozone Good
PM2.5 Moderate
Flu Activity Not available.
METAR KMDW 291251Z 16006KT 10SM SCT095 BKN110 OVC150 23/19 A2999 RMK AO2 SLP147 T02280189

More Conditions Fewer Conditions

Pressure 29.97 in
Visibility 10.0 miles
Clouds Scattered Clouds 9500 ft
Mostly Cloudy 11000 ft
Overcast 15000 ft
Dew Point 37 °F
Humidity 19%
Rainfall -999.00 in
Snow Depth Not available.
UV 0 out of 12
Pollen 4.40 out of 12
Ozone Good
PM2.5 Moderate
Flu Activity Not available.
METAR KMDW 291251Z 16006KT 10SM SCT095 BKN110 OVC150 23/19 A2999 RMK AO2 SLP147 T02280189

More Conditions Fewer Conditions

10-Day Weather Forecast

Almanac

Astronomy

Aug. 29, 2014 Rise Set
Actual Time 6:13 AM CDT 7:29 PM CDT
Civil Twilight 5:44 AM CDT 7:57 PM CDT
Nautical Twilight 5:09 AM CDT 8:32 PM CDT
Astronomical Twilight 4:33 AM CDT 9:08 PM CDT
Moon 10:06 AM CDT 9:21 PM CDT
Length of Visible Light 14h 13m
Length of Day
13h 15m
Tomorrow will be 2m 40s shorter.
Waxing Crescent, 14% of the Moon is Illuminated
Today
Waxing Crescent
Sep 2
First Quarter
Sep 8
Full
Sep 15
Last Quarter
Sep 24
New

Today's Extremes

State Highs State Lows

Community

WunderPhotos

Upload Photos

1,748,229 photos uploaded!

Nearby

Air Quality

  Air Quality AQ Index Pollutant
Yesterday Good
PM2.5
Yesterday Good
OZONE
Current Moderate
PM2.5
Current Good
OZONE
Friday Moderate
PM2.5
Saturday Good
PM2.5
Sunday Moderate
PM2.5

Snow Depth

Station Depth Elevation
No new snow has been reported.

Earthquake Activity

City Distance Mag. Time & Date
No recent earthquake activity has been reported nearby.
Minimum magnitude displayed is 2.5.

Coastal Water Temperatures

Place Temperature
No Stations Reporting

Nearby Weather Stations